Terminal Aerodrome Forecast
Issued by NWS

Home | Current Version | Previous Version | Text Only | Print | Product List | Glossary On
Versions: 1 2 3 4 5 6 7 8 9 10 11 12 13 14 15 16 17 18
000
FTUS45 KRIW 221100
TAFCOD
TAF
KCOD 221126Z 2212/2312 VRB06KT P6SM SCT050 BKN080
     FM222000 04007KT P6SM VCSH SCT040 BKN060
     FM230000 03010KT P6SM -SHRA SCT025 BKN040
     FM230500 VRB05KT P6SM VCSH SCT020 BKN040
      AMD LTD TO CLD VIS AND WIND=

USA.gov is the U.S. government's official web portal to all federal, state and local government web resources and services.